Dupage Airport
KDPA : now visible

Airfield :











YOU CAN JOIN US ON...

 
LOGIN :

Register | Disclaimer

   EN    FR    IT 

 









Legend :    VFR   Marginal VFR   IFR   Intensive IFR   Very Intensive IFR
Visi :
Ceiling :
>= 8 km
>= 3000ft
5 to 8 km
1000 to 3000 ft
1500m to 5 km
500 to 1000 ft
800 to 1500m
200 to 500 ft
< 800m
< 200 ft
Symbols :   Thunderstorms  Fog  Heavy snow  Heavy precipitations  Wind > 20 kt






- Airport Elevation : 759 ft


KDPA - Dupage

CURRENT METAR :
  • 100152Z 17011KT 10SM SCT060 28/22 A2975 RMK AO2 LTG DSNT W-N SLP067 T02780222

EXPIRED METARs :
  • 100052Z 18012KT 10SM FEW047 FEW065 28/22 A2975 RMK AO2 LTG DSNT N AND NE RAB14E29 TSB04E35 SLP066 P0000 T02780222
  • 100040Z 20005KT 10SM SCT048 BKN070 27/22 A2975 RMK AO2 LTG DSNT NW-NE RAB14E29 TSB04E35 P0000 T02670222
  • 100010Z 21013G17KT 10SM TS SCT055 SCT110 28/22 A2976 RMK AO2 LTG DSNT NW-NE TSB04 T02830222
  • 092352Z 20009KT 10SM VCTS FEW055 29/23 A2974 RMK AO2 PK WND 17042/2306 LTG DSNT ALQDS RAB08E29 TSB17E32B36E51 SLP064 P0000 60000 T02890228 10328 20261 56016
  • 092317Z 13011G29KT 3SM +TSRA FEW029 BKN090 OVC110 26/21 A2975 RMK AO2 PK WND 17042/2306 LTG DSNT ALQDS RAB08 TSB17 P0000 T02610211

TAF KDPA
Valid from the 10 at 00:00 until the 11 at 00:00 UTC


092320Z 1000/1024 18011G17KT P6SM VCTS BKN050CB
TEMPO 1000/1004 VRB25G35KT 2SM +TSRA BKN025 OVC050CB
FM100500 VRB05KT P6SM VCSH BKN050 OVC100
FM101000 33009KT P6SM -SHRA SCT015 BKN025
FM101400 34015G24KT P6SM BKN035
KZAU FIR / North America



MET'MAP, your aeronautical weather chart ! - Copyright ORBIFLY December 2007 - Disclaimer

ORBIFLY MET'MAP TEAM :

Programming & Development : Alexandra Zaïnal
Concept & original design : Baudouin d'Aumeries
Assistance for programming : Marc-Olivier Méhu
Technical & hardware support : Manuel Goepfert

Contact : metmap@orbifly.com




SOURCES & CREDITS :

   NOAA       Earth
Advisory